Time;durP1;ratioP1;P1;durP2;ratioP2;P2;SDS_P1;SDS_P2;PMS_P1;PMS_P2;Temp;Humidity;BMP_temperature;BMP_pressure;BME280_temperature;BME280_humidity;BME280_pressure;Samples;Min_cycle;Max_cycle;Signal;HPM_P1;HPM_P2
2021/03/18 00:00:12;;;;;;;4.63;3.20;;;2.10;99.90;;;;;;5044212;28;20249;-73
2021/03/18 00:02:38;;;;;;;5.37;3.47;;;2.00;99.90;;;;;;5043851;28;20310;-74
2021/03/18 00:05:08;;;;;;;7.27;3.37;;;2.00;99.90;;;;;;5042704;28;20210;-74
2021/03/18 00:07:35;;;;;;;8.83;3.37;;;2.00;99.90;;;;;;5043286;28;20199;-73
2021/03/18 00:10:05;;;;;;;5.87;3.30;;;2.00;99.90;;;;;;5042206;28;20210;-73
2021/03/18 00:12:31;;;;;;;5.10;3.67;;;2.00;99.90;;;;;;5038413;28;20206;-73
2021/03/18 00:14:59;;;;;;;6.13;3.50;;;1.90;99.90;;;;;;5040037;28;20222;-72
2021/03/18 00:17:26;;;;;;;9.53;3.77;;;1.90;99.90;;;;;;5038148;28;20680;-74
2021/03/18 00:19:52;;;;;;;5.20;3.37;;;1.90;99.90;;;;;;5038942;28;20232;-73
2021/03/18 00:22:19;;;;;;;9.53;3.63;;;1.90;99.90;;;;;;5037850;28;20199;-73
2021/03/18 00:24:46;;;;;;;5.73;3.73;;;1.90;99.90;;;;;;5038634;28;20249;-74
2021/03/18 00:27:13;;;;;;;6.10;3.27;;;1.80;99.90;;;;;;5038286;28;20290;-74
2021/03/18 00:29:40;;;;;;;5.60;3.60;;;1.80;99.90;;;;;;5038204;28;20730;-76
2021/03/18 00:32:08;;;;;;;5.33;3.20;;;1.70;99.90;;;;;;5037590;28;20207;-74
2021/03/18 00:34:34;;;;;;;4.87;3.13;;;1.70;99.90;;;;;;5038065;28;20206;-74
2021/03/18 00:37:01;;;;;;;4.90;2.80;;;1.70;99.90;;;;;;5038363;28;20290;-74
2021/03/18 00:39:28;;;;;;;5.07;3.07;;;1.60;99.90;;;;;;5037541;28;20301;-74
2021/03/18 00:41:54;;;;;;;5.70;4.03;;;1.60;99.90;;;;;;5036747;28;20206;-74
2021/03/18 00:44:21;;;;;;;7.60;3.30;;;1.60;99.90;;;;;;5037113;28;20234;-73
2021/03/18 00:46:47;;;;;;;5.37;3.20;;;1.50;99.90;;;;;;5037085;28;20674;-74
2021/03/18 00:49:14;;;;;;;6.80;3.57;;;1.50;99.90;;;;;;5037769;28;20566;-73
2021/03/18 00:51:40;;;;;;;5.57;3.77;;;1.50;99.90;;;;;;5038504;28;20298;-74
2021/03/18 00:54:06;;;;;;;8.77;3.40;;;1.50;99.90;;;;;;5038080;28;20237;-73
2021/03/18 00:56:34;;;;;;;5.37;3.40;;;1.40;99.90;;;;;;5037115;28;20198;-74
2021/03/18 00:59:00;;;;;;;7.83;4.13;;;1.40;99.90;;;;;;5038290;28;20322;-73
2021/03/18 01:01:27;;;;;;;6.40;3.63;;;1.40;99.90;;;;;;5036486;28;20648;-74
2021/03/18 01:03:53;;;;;;;6.47;3.80;;;1.40;99.90;;;;;;5036763;28;20213;-74
2021/03/18 01:06:22;;;;;;;6.57;3.60;;;1.40;99.90;;;;;;5033665;28;20292;-74
2021/03/18 01:08:49;;;;;;;8.13;4.27;;;1.30;99.90;;;;;;5038152;28;20222;-74
2021/03/18 01:11:18;;;;;;;7.80;3.80;;;1.30;99.90;;;;;;5036875;28;20206;-73
2021/03/18 01:13:47;;;;;;;6.10;4.20;;;1.30;99.90;;;;;;5034428;28;20250;-73
2021/03/18 01:16:16;;;;;;;7.67;4.13;;;1.30;99.90;;;;;;5036815;28;20229;-75
2021/03/18 01:18:48;;;;;;;6.87;4.63;;;1.20;99.90;;;;;;5036353;28;20290;-74
2021/03/18 01:21:16;;;;;;;6.60;4.13;;;1.30;99.90;;;;;;5034695;28;20241;-74
2021/03/18 01:23:43;;;;;;;7.57;4.13;;;1.20;99.90;;;;;;5035935;28;20266;-74
2021/03/18 01:26:11;;;;;;;7.37;4.87;;;1.20;99.90;;;;;;5036939;28;20615;-73
2021/03/18 01:28:38;;;;;;;6.83;4.57;;;1.30;99.90;;;;;;5036887;28;20221;-73
2021/03/18 01:31:07;;;;;;;6.37;4.37;;;1.20;99.90;;;;;;5036524;28;20206;-73
2021/03/18 01:33:34;;;;;;;7.93;4.37;;;1.20;99.90;;;;;;5036227;28;20206;-73
2021/03/18 01:36:02;;;;;;;8.30;4.50;;;1.20;99.90;;;;;;5035908;28;20307;-74
2021/03/18 01:38:29;;;;;;;8.73;4.13;;;1.20;99.90;;;;;;5036016;28;20313;-74
2021/03/18 01:40:56;;;;;;;8.90;5.03;;;1.20;99.90;;;;;;5033400;28;20205;-75
2021/03/18 01:43:23;;;;;;;10.03;4.73;;;1.20;99.90;;;;;;5036771;28;20231;-73
2021/03/18 01:45:49;;;;;;;7.60;4.87;;;1.20;99.90;;;;;;5037053;28;20236;-73
2021/03/18 01:48:17;;;;;;;7.60;4.83;;;1.20;99.90;;;;;;5031893;28;20204;-73
2021/03/18 01:50:44;;;;;;;7.33;4.67;;;1.20;99.90;;;;;;5035006;28;20644;-75
2021/03/18 01:53:11;;;;;;;7.53;4.90;;;1.20;99.90;;;;;;5036418;28;20659;-75
2021/03/18 01:55:39;;;;;;;9.77;4.73;;;1.20;99.90;;;;;;5034932;28;20211;-74
2021/03/18 01:58:08;;;;;;;12.90;4.83;;;1.10;99.90;;;;;;5035224;28;20229;-73
2021/03/18 02:00:36;;;;;;;8.17;4.33;;;1.10;99.90;;;;;;5035958;28;20701;-71
2021/03/18 02:03:03;;;;;;;8.90;4.60;;;1.10;99.90;;;;;;5030297;28;20238;-73
2021/03/18 02:05:32;;;;;;;9.43;5.03;;;1.00;99.90;;;;;;5032113;28;20207;-71
2021/03/18 02:07:58;;;;;;;11.00;5.00;;;1.00;99.90;;;;;;5035995;28;20603;-72
2021/03/18 02:10:27;;;;;;;8.63;5.50;;;1.00;99.90;;;;;;5034822;28;20680;-72
2021/03/18 02:12:55;;;;;;;7.83;4.53;;;1.00;99.90;;;;;;5034348;28;20214;-71
2021/03/18 02:15:25;;;;;;;10.40;4.77;;;1.00;99.90;;;;;;5035152;28;20654;-72
2021/03/18 02:17:59;;;;;;;7.60;4.33;;;1.00;99.90;;;;;;5034385;28;20230;-72
2021/03/18 02:21:08;;;;;;;10.67;4.93;;;1.00;99.90;;;;;;5034753;28;20714;-71
2021/03/18 02:24:23;;;;;;;8.00;4.73;;;0.90;99.90;;;;;;5031299;28;20293;-71
2021/03/18 02:27:39;;;;;;;6.53;4.60;;;0.90;99.90;;;;;;5023850;28;20208;-71
2021/03/18 02:30:42;;;;;;;10.37;4.73;;;0.90;99.90;;;;;;5033672;28;20206;-72
2021/03/18 02:34:00;;;;;;;10.27;4.63;;;0.80;99.90;;;;;;5017562;28;20245;-71
2021/03/18 02:36:46;;;;;;;7.40;4.73;;;0.90;99.90;;;;;;5030538;28;20260;-71
2021/03/18 02:39:16;;;;;;;8.33;5.00;;;0.90;99.90;;;;;;5034234;28;20316;-72
2021/03/18 02:41:48;;;;;;;8.03;4.73;;;0.80;99.90;;;;;;5034914;28;20639;-71
2021/03/18 02:44:17;;;;;;;7.87;5.13;;;0.80;99.90;;;;;;5035180;28;20297;-71
2021/03/18 02:46:48;;;;;;;7.40;5.00;;;0.80;99.90;;;;;;5028271;28;20620;-72
2021/03/18 02:49:16;;;;;;;6.83;4.43;;;0.80;99.90;;;;;;5034651;28;20677;-73
2021/03/18 02:51:45;;;;;;;10.47;5.93;;;0.80;99.90;;;;;;5035381;28;20330;-73
2021/03/18 02:54:14;;;;;;;11.93;5.60;;;0.90;99.90;;;;;;5035795;28;20292;-72
2021/03/18 02:56:44;;;;;;;7.63;5.33;;;0.90;99.90;;;;;;5031354;28;20298;-72
2021/03/18 02:59:14;;;;;;;10.13;5.40;;;0.90;99.90;;;;;;5035299;28;20230;-72
2021/03/18 03:01:42;;;;;;;8.97;5.57;;;0.90;99.90;;;;;;5033875;28;20258;-72
2021/03/18 03:04:10;;;;;;;11.30;6.07;;;0.90;99.90;;;;;;5034095;28;20209;-72
2021/03/18 03:06:39;;;;;;;8.43;4.77;;;0.90;99.90;;;;;;5033742;28;20680;-72
2021/03/18 03:09:08;;;;;;;11.03;5.77;;;1.00;99.90;;;;;;5033259;28;20210;-71
2021/03/18 03:11:36;;;;;;;8.50;5.47;;;1.00;99.90;;;;;;5035335;28;20234;-72
2021/03/18 03:14:03;;;;;;;9.93;5.00;;;0.90;99.90;;;;;;5034859;28;20271;-72
2021/03/18 03:16:30;;;;;;;8.40;5.03;;;1.00;99.90;;;;;;5035472;28;20213;-72
2021/03/18 03:18:58;;;;;;;9.83;5.47;;;0.90;99.90;;;;;;5035575;28;20290;-72
2021/03/18 03:21:26;;;;;;;8.27;4.80;;;0.90;99.90;;;;;;5035081;28;20198;-72
2021/03/18 03:23:52;;;;;;;14.13;6.00;;;0.90;99.90;;;;;;5035554;28;20211;-73
2021/03/18 03:26:23;;;;;;;11.23;5.77;;;0.90;99.90;;;;;;5034149;28;20242;-72
2021/03/18 03:28:51;;;;;;;8.13;4.60;;;0.80;99.90;;;;;;5035271;28;20213;-72
2021/03/18 03:31:17;;;;;;;12.17;5.07;;;0.80;99.90;;;;;;5034926;28;20214;-71
2021/03/18 03:33:45;;;;;;;8.27;4.60;;;0.80;99.90;;;;;;5034726;28;20629;-72
2021/03/18 03:36:12;;;;;;;10.60;5.47;;;0.80;99.90;;;;;;5034908;28;20230;-72
2021/03/18 03:38:39;;;;;;;11.50;5.00;;;0.80;99.90;;;;;;5034478;28;20232;-72
2021/03/18 03:41:06;;;;;;;8.00;5.00;;;0.90;99.90;;;;;;5033579;28;20209;-72
2021/03/18 03:43:34;;;;;;;8.70;5.60;;;0.90;99.90;;;;;;5033097;28;20539;-72
2021/03/18 03:46:03;;;;;;;7.80;5.70;;;0.90;99.90;;;;;;5034766;28;20207;-72
2021/03/18 03:48:31;;;;;;;8.03;4.83;;;0.90;99.90;;;;;;5034011;28;20294;-72
2021/03/18 03:50:58;;;;;;;8.47;4.93;;;1.00;99.90;;;;;;5034285;28;20358;-71
2021/03/18 03:53:31;;;;;;;11.33;5.43;;;0.90;99.90;;;;;;5034967;28;20221;-71
2021/03/18 03:56:04;;;;;;;9.43;5.20;;;0.90;99.90;;;;;;5035322;28;20245;-72
2021/03/18 03:58:40;;;;;;;9.13;4.87;;;0.90;99.90;;;;;;5033985;28;20305;-72
2021/03/18 04:01:13;;;;;;;8.13;5.00;;;0.90;99.90;;;;;;5033471;28;20218;-72
2021/03/18 04:03:39;;;;;;;8.83;4.93;;;0.90;99.90;;;;;;5031389;28;20571;-71
2021/03/18 04:06:08;;;;;;;7.60;5.90;;;1.00;99.90;;;;;;5034763;28;20778;-71
2021/03/18 04:08:38;;;;;;;13.57;6.90;;;1.00;99.90;;;;;;5029239;28;20573;-72
2021/03/18 04:11:09;;;;;;;10.03;5.40;;;1.10;99.90;;;;;;5034957;28;20281;-72
2021/03/18 04:13:37;;;;;;;8.27;5.40;;;1.10;99.90;;;;;;5033002;28;20227;-71
2021/03/18 04:16:04;;;;;;;8.57;5.57;;;1.10;99.90;;;;;;5034441;28;20618;-73
2021/03/18 04:18:36;;;;;;;9.60;5.80;;;1.20;99.90;;;;;;5034321;28;20226;-71
2021/03/18 04:21:06;;;;;;;8.97;5.73;;;1.10;99.90;;;;;;5034851;28;20203;-72
2021/03/18 04:23:33;;;;;;;10.00;6.23;;;1.10;99.90;;;;;;5033501;28;20208;-72
2021/03/18 04:26:00;;;;;;;8.63;6.20;;;1.10;99.90;;;;;;5034593;28;20225;-72
2021/03/18 04:28:28;;;;;;;9.70;6.03;;;1.10;99.90;;;;;;5033384;28;20202;-71
2021/03/18 04:30:57;;;;;;;11.20;6.17;;;1.10;99.90;;;;;;5032064;28;20203;-72
2021/03/18 04:33:25;;;;;;;8.50;6.30;;;1.10;99.90;;;;;;5033911;28;20225;-71
2021/03/18 04:35:52;;;;;;;10.20;5.60;;;1.10;99.90;;;;;;5033828;28;20297;-72
2021/03/18 04:38:19;;;;;;;9.43;5.87;;;1.20;99.90;;;;;;5033247;28;20227;-72
2021/03/18 04:40:46;;;;;;;10.00;5.43;;;1.20;99.90;;;;;;5036770;28;20290;-71
2021/03/18 04:43:14;;;;;;;10.80;6.40;;;1.20;99.90;;;;;;5037349;28;20542;-72
2021/03/18 04:45:47;;;;;;;8.97;6.17;;;1.30;99.90;;;;;;5037166;28;20234;-72
2021/03/18 04:48:16;;;;;;;8.07;6.20;;;1.10;99.90;;;;;;5031402;28;20195;-72
2021/03/18 04:50:43;;;;;;;8.97;6.03;;;1.10;99.90;;;;;;5037144;28;20301;-72
2021/03/18 04:53:11;;;;;;;10.30;7.40;;;1.20;99.90;;;;;;5038050;28;20217;-71
2021/03/18 04:55:38;;;;;;;10.87;6.90;;;1.10;99.90;;;;;;5037921;28;20213;-71
2021/03/18 04:58:06;;;;;;;11.23;6.77;;;1.10;99.90;;;;;;5035880;28;20223;-72
2021/03/18 05:00:35;;;;;;;9.63;6.90;;;1.10;99.90;;;;;;5037912;28;20209;-73
2021/03/18 05:03:03;;;;;;;10.97;7.30;;;1.10;99.90;;;;;;5037139;28;20294;-72
2021/03/18 05:05:32;;;;;;;11.00;6.60;;;1.20;99.90;;;;;;5037133;28;20303;-72
2021/03/18 05:08:00;;;;;;;9.43;6.40;;;1.30;99.90;;;;;;5036634;28;20211;-72
2021/03/18 05:10:31;;;;;;;10.33;6.63;;;1.30;99.90;;;;;;5035305;28;20244;-72
2021/03/18 05:13:00;;;;;;;10.53;6.63;;;1.30;99.90;;;;;;5035395;28;20584;-72
2021/03/18 05:15:27;;;;;;;13.37;7.77;;;1.30;99.90;;;;;;5035833;28;20230;-71
2021/03/18 05:17:54;;;;;;;10.87;6.50;;;1.40;99.90;;;;;;5035859;28;20301;-72
2021/03/18 05:20:23;;;;;;;8.07;6.40;;;1.40;99.90;;;;;;5035975;28;20259;-71
2021/03/18 05:22:52;;;;;;;9.53;6.83;;;1.40;99.90;;;;;;5036679;28;20208;-72
2021/03/18 05:25:22;;;;;;;8.50;6.47;;;1.50;99.90;;;;;;5036451;28;20239;-73
2021/03/18 05:27:49;;;;;;;12.40;7.03;;;1.50;99.90;;;;;;5036553;28;20202;-72
2021/03/18 05:30:16;;;;;;;11.70;7.03;;;1.50;99.90;;;;;;5036488;28;20210;-72
2021/03/18 05:32:45;;;;;;;9.20;6.93;;;1.60;99.90;;;;;;5036932;28;20575;-72
2021/03/18 05:35:14;;;;;;;10.20;6.90;;;1.70;99.90;;;;;;5035390;28;20206;-73
2021/03/18 05:37:41;;;;;;;11.70;7.67;;;1.70;99.90;;;;;;5034063;28;20301;-72
2021/03/18 05:40:11;;;;;;;10.77;6.90;;;1.80;99.90;;;;;;5035300;28;20234;-72
2021/03/18 05:42:38;;;;;;;10.40;7.13;;;1.80;99.90;;;;;;5036322;28;20665;-71
2021/03/18 05:45:07;;;;;;;12.33;7.53;;;1.80;99.90;;;;;;5036631;28;20229;-72
2021/03/18 05:47:35;;;;;;;10.40;6.93;;;1.90;99.90;;;;;;5035552;28;20199;-71
2021/03/18 05:50:03;;;;;;;11.90;7.03;;;1.90;99.90;;;;;;5036908;28;20210;-72
2021/03/18 05:52:30;;;;;;;12.70;7.80;;;2.00;99.90;;;;;;5034666;28;20274;-72
2021/03/18 05:54:58;;;;;;;11.10;7.43;;;2.00;99.90;;;;;;5035574;28;20217;-72
2021/03/18 05:57:25;;;;;;;12.00;7.80;;;2.10;99.90;;;;;;5035060;28;20573;-70
2021/03/18 05:59:53;;;;;;;11.07;6.93;;;2.20;99.90;;;;;;5035747;28;20551;-73
2021/03/18 06:02:20;;;;;;;10.37;7.07;;;2.20;99.90;;;;;;5031289;28;20281;-72
2021/03/18 06:04:48;;;;;;;11.07;8.00;;;2.20;99.90;;;;;;5035424;28;20233;-72
2021/03/18 06:07:15;;;;;;;11.70;7.33;;;2.30;99.90;;;;;;5031720;28;20222;-72
2021/03/18 06:09:41;;;;;;;10.40;7.23;;;2.30;99.90;;;;;;5034995;28;20217;-73
2021/03/18 06:12:08;;;;;;;10.50;6.20;;;2.40;99.90;;;;;;5035812;28;20246;-73
2021/03/18 06:14:36;;;;;;;8.63;6.53;;;2.50;99.90;;;;;;5034514;28;20309;-72
2021/03/18 06:17:03;;;;;;;13.80;6.60;;;2.60;99.90;;;;;;5034167;28;20294;-72
2021/03/18 06:19:31;;;;;;;9.03;5.90;;;2.60;99.90;;;;;;5035165;28;20317;-72
2021/03/18 06:21:59;;;;;;;11.17;6.13;;;2.80;99.90;;;;;;5035051;28;20199;-72
2021/03/18 06:24:26;;;;;;;8.80;5.80;;;2.90;99.90;;;;;;5034644;28;20293;-72
2021/03/18 06:26:53;;;;;;;9.00;5.77;;;3.00;99.90;;;;;;5033155;28;20224;-71
2021/03/18 06:29:32;;;;;;;9.23;6.17;;;3.10;99.90;;;;;;5033153;28;20652;-69
2021/03/18 06:32:15;;;;;;;8.70;5.10;;;3.20;99.90;;;;;;5032498;28;20221;-71
2021/03/18 06:34:44;;;;;;;6.67;5.00;;;3.20;99.90;;;;;;5029276;28;20206;-71
2021/03/18 06:37:35;;;;;;;6.80;5.07;;;3.40;99.90;;;;;;5033236;28;20199;-72
2021/03/18 06:40:13;;;;;;;7.03;4.30;;;3.40;99.90;;;;;;5032427;28;20650;-72
2021/03/18 06:42:42;;;;;;;7.03;4.70;;;3.30;99.90;;;;;;5034038;28;20249;-72
2021/03/18 06:45:11;;;;;;;6.80;4.40;;;3.30;99.90;;;;;;5033414;28;20249;-71
2021/03/18 06:47:44;;;;;;;5.73;4.53;;;3.20;99.90;;;;;;5033724;28;20646;-72
2021/03/18 06:50:13;;;;;;;8.13;5.07;;;3.10;99.90;;;;;;5032850;28;20207;-71
2021/03/18 06:52:41;;;;;;;8.30;5.57;;;3.10;99.90;;;;;;5034048;28;20667;-72
2021/03/18 06:55:10;;;;;;;7.10;5.17;;;3.10;99.90;;;;;;5033301;28;20686;-73
2021/03/18 06:57:36;;;;;;;6.47;4.57;;;3.20;99.90;;;;;;5028099;28;20283;-72
2021/03/18 07:00:06;;;;;;;6.47;4.90;;;3.30;99.90;;;;;;5034370;28;20305;-72
2021/03/18 07:02:39;;;;;;;8.97;4.53;;;3.50;99.90;;;;;;5033662;28;20365;-71
2021/03/18 07:05:16;;;;;;;5.23;4.23;;;3.60;99.90;;;;;;5034193;28;20211;-73
2021/03/18 07:07:43;;;;;;;7.40;4.27;;;3.70;99.90;;;;;;5028636;28;20233;-72
2021/03/18 07:10:10;;;;;;;9.57;4.07;;;3.80;99.90;;;;;;5035112;28;20681;-72
2021/03/18 07:12:37;;;;;;;4.20;3.60;;;3.90;99.90;;;;;;5034215;28;20275;-72
2021/03/18 07:15:17;;;;;;;6.23;4.33;;;4.00;99.90;;;;;;5034997;28;20305;-72
2021/03/18 07:17:43;;;;;;;3.97;3.23;;;4.10;99.90;;;;;;5034594;28;20218;-72
2021/03/18 07:20:16;;;;;;;5.73;3.80;;;4.10;99.90;;;;;;5035078;28;20225;-72
2021/03/18 07:22:44;;;;;;;6.40;4.00;;;4.10;99.90;;;;;;5033864;28;20217;-71
2021/03/18 07:25:13;;;;;;;5.80;3.53;;;4.10;99.90;;;;;;5029418;28;20294;-73
2021/03/18 07:27:44;;;;;;;4.20;3.20;;;4.10;99.90;;;;;;5034832;28;20216;-75
2021/03/18 07:30:22;;;;;;;5.33;3.90;;;4.00;99.90;;;;;;5035956;28;20198;-71
2021/03/18 07:32:49;;;;;;;6.23;4.27;;;3.90;99.90;;;;;;5026341;28;20214;-70
2021/03/18 07:35:17;;;;;;;7.43;4.47;;;3.90;99.90;;;;;;5034103;28;20297;-72
2021/03/18 07:37:43;;;;;;;4.67;3.50;;;3.80;99.90;;;;;;5027317;28;20598;-72
2021/03/18 07:40:10;;;;;;;5.83;3.80;;;3.80;99.90;;;;;;5034236;28;20241;-73
2021/03/18 07:42:38;;;;;;;5.93;3.83;;;3.80;99.90;;;;;;5033365;28;20931;-71
2021/03/18 07:45:06;;;;;;;4.70;3.40;;;3.80;99.90;;;;;;5027068;28;20202;-72
2021/03/18 07:47:33;;;;;;;5.17;3.63;;;3.80;99.90;;;;;;5035007;28;20229;-71
2021/03/18 07:50:01;;;;;;;4.80;3.47;;;3.80;99.90;;;;;;5032140;28;20218;-70
2021/03/18 07:52:29;;;;;;;5.57;3.20;;;3.90;99.90;;;;;;5034304;28;20260;-72
2021/03/18 07:54:58;;;;;;;4.13;3.30;;;3.90;99.90;;;;;;5034440;28;20297;-71
2021/03/18 07:57:25;;;;;;;5.40;3.10;;;4.10;99.90;;;;;;5035647;28;20217;-72
2021/03/18 07:59:51;;;;;;;5.87;3.33;;;4.20;99.90;;;;;;5030310;28;20283;-70
2021/03/18 08:02:21;;;;;;;3.83;3.03;;;4.20;99.90;;;;;;5028671;28;20231;-71
2021/03/18 08:04:50;;;;;;;3.43;2.70;;;4.20;99.90;;;;;;5031253;28;20218;-71
2021/03/18 08:07:42;;;;;;;4.27;2.87;;;4.10;99.90;;;;;;5034529;28;20663;-72
2021/03/18 08:10:11;;;;;;;3.47;2.43;;;4.10;99.90;;;;;;5034213;28;20226;-72
2021/03/18 08:12:49;;;;;;;5.33;2.50;;;4.10;99.90;;;;;;5034642;28;20305;-72
2021/03/18 08:15:24;;;;;;;2.27;1.97;;;4.20;99.90;;;;;;5036559;28;20222;-70
2021/03/18 08:17:52;;;;;;;3.03;1.90;;;4.20;98.50;;;;;;5037848;28;20254;-71
2021/03/18 08:20:57;;;;;;;2.83;1.73;;;4.20;96.30;;;;;;5034485;28;20278;-71
2021/03/18 08:23:43;;;;;;;1.73;1.63;;;4.20;95.20;;;;;;5034919;28;20213;-72
2021/03/18 08:26:13;;;;;;;2.13;1.60;;;4.20;93.80;;;;;;5033743;28;20214;-69
2021/03/18 08:28:42;;;;;;;12.00;1.90;;;4.20;93.80;;;;;;5030391;28;20239;-71
2021/03/18 08:31:11;;;;;;;1.90;1.73;;;4.30;93.00;;;;;;5023424;28;20595;-71
2021/03/18 08:33:39;;;;;;;2.77;1.70;;;4.20;92.50;;;;;;5035881;28;20644;-71
2021/03/18 08:36:28;;;;;;;2.80;1.67;;;4.20;92.20;;;;;;5035539;28;20313;-71
2021/03/18 08:38:58;;;;;;;2.50;1.57;;;4.20;91.50;;;;;;5031084;28;20222;-73
2021/03/18 08:41:31;;;;;;;4.53;1.97;;;4.20;91.10;;;;;;5030830;28;20298;-71
2021/03/18 08:44:15;;;;;;;3.67;2.20;;;4.10;90.80;;;;;;5035737;28;20206;-70
2021/03/18 08:46:47;;;;;;;3.43;2.00;;;4.10;90.20;;;;;;5035178;28;20276;-71
2021/03/18 08:49:22;;;;;;;2.30;1.87;;;4.00;90.10;;;;;;5036238;28;20195;-72
2021/03/18 08:51:49;;;;;;;2.83;1.90;;;4.00;90.50;;;;;;5035962;28;20340;-70
2021/03/18 08:54:54;;;;;;;3.60;2.37;;;4.10;90.70;;;;;;5034934;28;20230;-70
2021/03/18 08:57:31;;;;;;;4.50;2.30;;;4.20;91.10;;;;;;5032573;28;20210;-69
2021/03/18 09:00:01;;;;;;;3.77;2.43;;;4.20;91.40;;;;;;5034198;28;20703;-71
2021/03/18 09:02:32;;;;;;;3.63;2.00;;;4.30;92.00;;;;;;5034445;28;20234;-69
2021/03/18 09:04:59;;;;;;;2.57;2.07;;;4.30;91.80;;;;;;5034946;28;20214;-71
2021/03/18 09:07:27;;;;;;;3.53;2.10;;;4.40;91.70;;;;;;5033767;28;20211;-69
2021/03/18 09:10:12;;;;;;;2.67;2.30;;;4.30;91.70;;;;;;5034915;28;20226;-70
2021/03/18 09:12:47;;;;;;;4.17;2.40;;;4.30;91.90;;;;;;5034996;28;20208;-69
2021/03/18 09:15:25;;;;;;;4.43;2.10;;;4.40;92.20;;;;;;5034771;28;20233;-69
2021/03/18 09:17:54;;;;;;;4.70;2.30;;;4.40;92.10;;;;;;5027802;28;20312;-69
2021/03/18 09:20:24;;;;;;;3.47;1.57;;;4.50;92.10;;;;;;5027060;28;20215;-70
2021/03/18 09:22:52;;;;;;;5.43;2.20;;;4.50;92.20;;;;;;5034167;28;20207;-70
2021/03/18 09:25:26;;;;;;;4.17;2.03;;;4.50;92.20;;;;;;5031860;28;20206;-69
2021/03/18 09:27:52;;;;;;;1.80;1.70;;;4.60;92.30;;;;;;5034478;28;20242;-70
2021/03/18 09:30:27;;;;;;;2.70;1.70;;;4.60;92.20;;;;;;5035001;28;20219;-69
2021/03/18 09:32:54;;;;;;;2.07;1.50;;;4.70;91.20;;;;;;5034522;28;20646;-69
2021/03/18 09:35:21;;;;;;;3.20;1.90;;;4.60;90.30;;;;;;5033446;28;20270;-70
2021/03/18 09:37:48;;;;;;;2.30;1.80;;;4.50;90.10;;;;;;5034403;28;20207;-70
2021/03/18 09:40:16;;;;;;;3.33;2.00;;;4.50;90.10;;;;;;5033138;28;20206;-70
2021/03/18 09:42:44;;;;;;;2.53;1.77;;;4.40;90.00;;;;;;5034471;28;20202;-70
2021/03/18 09:45:18;;;;;;;3.67;2.10;;;4.40;90.70;;;;;;5034029;28;20523;-70
2021/03/18 09:47:49;;;;;;;5.27;1.93;;;4.40;91.10;;;;;;5034925;28;20345;-69
2021/03/18 09:50:16;;;;;;;3.43;1.70;;;4.50;90.90;;;;;;5034054;28;20676;-71
2021/03/18 09:52:42;;;;;;;2.70;1.70;;;4.50;90.40;;;;;;5032728;28;20289;-71
2021/03/18 09:55:12;;;;;;;2.33;1.60;;;4.50;90.10;;;;;;5034458;28;20215;-70
2021/03/18 09:57:38;;;;;;;3.67;2.27;;;4.50;90.00;;;;;;5033999;28;20722;-70
2021/03/18 10:00:08;;;;;;;1.87;1.70;;;4.50;90.10;;;;;;5034689;28;20286;-69
2021/03/18 10:02:34;;;;;;;3.00;1.60;;;4.60;89.30;;;;;;5033405;28;20727;-71
2021/03/18 10:05:00;;;;;;;2.63;1.87;;;4.60;88.70;;;;;;5033223;28;20241;-70
2021/03/18 10:07:29;;;;;;;2.60;1.73;;;4.60;88.30;;;;;;5032854;28;20642;-73
2021/03/18 10:09:56;;;;;;;5.37;2.43;;;4.70;88.50;;;;;;5035563;28;20218;-72
2021/03/18 10:12:25;;;;;;;3.63;2.00;;;4.70;88.10;;;;;;5035435;28;20307;-73
2021/03/18 10:14:55;;;;;;;4.97;1.80;;;4.70;87.70;;;;;;5034245;28;20305;-73
2021/03/18 10:17:26;;;;;;;3.77;2.10;;;4.70;87.50;;;;;;5033932;28;20209;-72
2021/03/18 10:19:58;;;;;;;2.23;1.77;;;4.70;88.10;;;;;;5034899;28;20223;-72
2021/03/18 10:22:30;;;;;;;2.83;2.00;;;4.70;88.20;;;;;;5033811;28;20199;-71
2021/03/18 10:25:07;;;;;;;2.30;1.80;;;4.90;88.50;;;;;;5033878;28;20206;-71
2021/03/18 10:27:36;;;;;;;3.40;2.10;;;5.20;89.00;;;;;;5033815;28;20203;-70
2021/03/18 10:30:08;;;;;;;4.13;1.70;;;5.40;87.60;;;;;;5034670;28;20301;-71
2021/03/18 10:32:36;;;;;;;4.70;2.13;;;5.60;87.40;;;;;;5033269;28;20234;-71
2021/03/18 10:35:04;;;;;;;2.80;2.27;;;6.10;86.90;;;;;;5031788;28;20626;-71
2021/03/18 10:37:33;;;;;;;2.13;1.60;;;6.40;83.00;;;;;;5035006;28;20244;-71
2021/03/18 10:40:16;;;;;;;3.43;2.03;;;6.50;80.40;;;;;;5036099;28;20758;-72
2021/03/18 10:42:46;;;;;;;3.83;2.50;;;6.50;77.60;;;;;;5032696;28;20233;-71
2021/03/18 10:45:15;;;;;;;3.87;1.77;;;6.50;75.40;;;;;;5033034;28;20229;-71
2021/03/18 10:47:44;;;;;;;4.10;2.00;;;6.30;74.70;;;;;;5034840;28;20302;-72
2021/03/18 10:50:12;;;;;;;3.30;2.07;;;6.30;74.60;;;;;;5034399;28;20229;-72
2021/03/18 10:52:39;;;;;;;4.40;2.37;;;6.10;74.10;;;;;;5033066;28;20203;-72
2021/03/18 10:55:08;;;;;;;3.67;2.13;;;6.00;75.30;;;;;;5033890;28;20230;-71
2021/03/18 10:57:35;;;;;;;3.43;2.07;;;5.80;77.10;;;;;;5033580;28;20253;-72
2021/03/18 11:00:05;;;;;;;2.00;1.80;;;5.70;77.80;;;;;;5028743;28;20369;-71
2021/03/18 11:02:31;;;;;;;2.93;2.10;;;5.70;78.40;;;;;;5034257;28;20325;-71
2021/03/18 11:05:01;;;;;;;2.97;2.27;;;5.60;79.20;;;;;;5033794;28;20198;-71
2021/03/18 11:07:28;;;;;;;3.27;1.70;;;5.60;80.40;;;;;;5033729;28;20242;-72
2021/03/18 11:10:10;;;;;;;2.73;2.07;;;5.70;80.00;;;;;;5031897;28;20233;-72
2021/03/18 11:12:37;;;;;;;5.50;2.20;;;5.70;79.20;;;;;;5033404;28;20298;-72
2021/03/18 11:15:07;;;;;;;3.53;2.40;;;5.80;79.90;;;;;;5033436;28;20222;-73
2021/03/18 11:17:33;;;;;;;4.27;2.13;;;5.80;79.50;;;;;;5030495;28;20199;-72
2021/03/18 11:20:12;;;;;;;2.30;2.07;;;5.80;79.80;;;;;;5033997;28;20705;-73
2021/03/18 11:22:39;;;;;;;3.63;2.40;;;5.80;81.20;;;;;;5030882;28;20556;-72
2021/03/18 11:25:07;;;;;;;6.63;2.63;;;5.80;83.00;;;;;;5027338;28;20286;-72
2021/03/18 11:27:34;;;;;;;2.83;2.30;;;5.70;83.90;;;;;;5034333;28;20619;-72
2021/03/18 11:30:01;;;;;;;3.70;2.43;;;5.70;84.60;;;;;;5031831;28;20226;-73
2021/03/18 11:32:28;;;;;;;3.97;2.90;;;5.60;85.10;;;;;;5034225;28;20238;-73
2021/03/18 11:34:58;;;;;;;4.07;2.50;;;5.60;85.10;;;;;;5034410;28;20205;-72
2021/03/18 11:37:27;;;;;;;5.13;2.93;;;5.70;86.30;;;;;;5034829;28;20211;-73
2021/03/18 11:39:54;;;;;;;4.60;2.93;;;5.80;86.90;;;;;;5034025;28;20254;-72
2021/03/18 11:42:20;;;;;;;3.90;3.07;;;5.90;87.10;;;;;;5021245;28;20613;-74
2021/03/18 11:44:47;;;;;;;4.07;2.50;;;6.00;87.10;;;;;;5035229;28;20305;-76
2021/03/18 11:47:15;;;;;;;3.63;2.70;;;5.80;84.70;;;;;;5034199;28;20301;-72
2021/03/18 11:49:42;;;;;;;3.10;2.77;;;5.80;85.10;;;;;;5038608;28;20206;-77
2021/03/18 11:52:10;;;;;;;2.80;2.50;;;5.70;87.00;;;;;;5040268;28;20841;-74
2021/03/18 11:54:38;;;;;;;4.37;3.13;;;5.50;90.30;;;;;;5036579;28;20207;-74
2021/03/18 11:57:06;;;;;;;5.10;3.53;;;5.30;92.20;;;;;;5038355;28;20222;-72
2021/03/18 11:59:32;;;;;;;6.30;3.70;;;5.10;94.50;;;;;;5037097;28;20256;-73
2021/03/18 12:01:59;;;;;;;4.73;3.40;;;5.00;97.20;;;;;;5038531;28;20289;-71
2021/03/18 12:04:25;;;;;;;4.87;3.40;;;5.00;99.80;;;;;;5038261;28;20207;-75
2021/03/18 12:06:52;;;;;;;3.90;2.93;;;5.10;99.90;;;;;;5039783;28;20266;-75
2021/03/18 12:09:18;;;;;;;3.37;3.07;;;6.10;99.90;;;;;;5039740;28;20206;-77
2021/03/18 12:11:46;;;;;;;5.30;2.60;;;8.00;99.90;;;;;;5040240;28;20221;-77
2021/03/18 12:14:13;;;;;;;4.97;3.10;;;9.10;97.10;;;;;;5039729;28;20258;-76
2021/03/18 12:16:39;;;;;;;3.03;2.57;;;9.10;90.20;;;;;;5038885;28;20344;-75
2021/03/18 12:19:09;;;;;;;4.80;3.23;;;8.90;91.00;;;;;;5037435;28;20250;-80
2021/03/18 12:21:36;;;;;;;3.80;2.93;;;9.30;93.80;;;;;;5032376;28;20207;-74
2021/03/18 12:24:02;;;;;;;4.07;3.00;;;10.40;92.10;;;;;;5037017;28;20232;-75
2021/03/18 12:26:29;;;;;;;5.23;3.13;;;11.40;80.20;;;;;;5036468;28;20213;-74
2021/03/18 12:28:56;;;;;;;3.27;2.97;;;12.20;69.30;;;;;;5030949;28;20252;-70
2021/03/18 12:31:22;;;;;;;4.00;3.10;;;12.80;62.30;;;;;;5037102;28;20211;-73
2021/03/18 12:33:49;;;;;;;3.10;2.80;;;13.40;59.40;;;;;;5032614;28;20203;-72
2021/03/18 12:36:15;;;;;;;3.07;2.77;;;13.90;55.90;;;;;;5036083;28;20646;-71
2021/03/18 12:38:42;;;;;;;3.43;2.77;;;14.40;53.60;;;;;;5037093;28;20699;-72
2021/03/18 12:41:08;;;;;;;3.63;2.90;;;14.70;50.40;;;;;;5037092;28;20217;-70
2021/03/18 12:43:35;;;;;;;3.20;2.90;;;14.60;47.90;;;;;;5036946;28;20727;-72
2021/03/18 12:46:02;;;;;;;3.90;3.07;;;13.80;45.90;;;;;;5037564;28;20242;-74
2021/03/18 12:48:29;;;;;;;4.90;3.47;;;13.00;47.00;;;;;;5037339;28;20308;-75
2021/03/18 12:50:55;;;;;;;4.53;3.50;;;12.30;48.30;;;;;;5039701;28;20255;-76
2021/03/18 12:53:24;;;;;;;4.13;3.47;;;11.50;49.10;;;;;;5037095;28;20242;-75
2021/03/18 12:55:51;;;;;;;4.73;3.57;;;11.00;50.60;;;;;;5031343;28;20237;-74
2021/03/18 12:58:17;;;;;;;5.00;3.40;;;10.50;51.60;;;;;;5037177;28;20254;-74
2021/03/18 13:00:44;;;;;;;4.20;2.73;;;10.10;52.50;;;;;;5035630;28;20207;-73
2021/03/18 13:03:12;;;;;;;4.80;3.07;;;9.80;53.20;;;;;;5037049;28;20273;-73
2021/03/18 13:05:38;;;;;;;4.97;3.00;;;9.40;52.70;;;;;;5037045;28;20211;-72
2021/03/18 13:08:05;;;;;;;3.73;2.77;;;9.20;52.70;;;;;;5033944;28;20664;-72